sensor_id;sensor_type;location;lat;lon;timestamp;P1;durP1;ratioP1;P2;durP2;ratioP2
75768;SDS011;64379;48.888;8.330;2023-02-01T00:00:32;7.22;;;3.35;;
75768;SDS011;64379;48.888;8.330;2023-02-01T00:03:00;4.55;;;2.17;;
75768;SDS011;64379;48.888;8.330;2023-02-01T00:05:26;6.22;;;2.97;;
75768;SDS011;64379;48.888;8.330;2023-02-01T00:07:51;7.50;;;2.88;;
75768;SDS011;64379;48.888;8.330;2023-02-01T00:10:17;8.70;;;2.88;;
75768;SDS011;64379;48.888;8.330;2023-02-01T00:12:43;5.38;;;2.58;;
75768;SDS011;64379;48.888;8.330;2023-02-01T00:15:09;4.90;;;2.22;;
75768;SDS011;64379;48.888;8.330;2023-02-01T00:17:34;6.57;;;2.70;;
75768;SDS011;64379;48.888;8.330;2023-02-01T00:20:00;6.55;;;3.00;;
75768;SDS011;64379;48.888;8.330;2023-02-01T00:22:26;7.25;;;3.10;;
75768;SDS011;64379;48.888;8.330;2023-02-01T00:24:51;5.45;;;2.45;;
75768;SDS011;64379;48.888;8.330;2023-02-01T00:27:17;6.15;;;2.45;;
75768;SDS011;64379;48.888;8.330;2023-02-01T00:29:45;4.57;;;2.13;;
75768;SDS011;64379;48.888;8.330;2023-02-01T00:32:11;5.78;;;2.03;;
75768;SDS011;64379;48.888;8.330;2023-02-01T00:34:37;6.65;;;2.58;;
75768;SDS011;64379;48.888;8.330;2023-02-01T00:37:02;4.00;;;1.92;;
75768;SDS011;64379;48.888;8.330;2023-02-01T00:39:28;5.25;;;2.15;;
75768;SDS011;64379;48.888;8.330;2023-02-01T00:41:54;3.85;;;1.70;;
75768;SDS011;64379;48.888;8.330;2023-02-01T00:44:19;5.80;;;2.40;;
75768;SDS011;64379;48.888;8.330;2023-02-01T00:46:45;5.68;;;2.45;;
75768;SDS011;64379;48.888;8.330;2023-02-01T00:49:10;4.97;;;2.30;;
75768;SDS011;64379;48.888;8.330;2023-02-01T00:51:36;5.10;;;2.22;;
75768;SDS011;64379;48.888;8.330;2023-02-01T00:54:01;6.88;;;2.72;;
75768;SDS011;64379;48.888;8.330;2023-02-01T00:56:28;3.60;;;1.83;;
75768;SDS011;64379;48.888;8.330;2023-02-01T00:58:54;4.88;;;2.00;;
75768;SDS011;64379;48.888;8.330;2023-02-01T01:01:21;6.60;;;2.92;;
75768;SDS011;64379;48.888;8.330;2023-02-01T01:03:52;5.97;;;2.85;;
75768;SDS011;64379;48.888;8.330;2023-02-01T01:06:21;5.70;;;2.60;;
75768;SDS011;64379;48.888;8.330;2023-02-01T01:08:56;4.35;;;2.17;;
75768;SDS011;64379;48.888;8.330;2023-02-01T01:11:24;8.77;;;2.45;;
75768;SDS011;64379;48.888;8.330;2023-02-01T01:13:52;4.47;;;1.83;;
75768;SDS011;64379;48.888;8.330;2023-02-01T01:16:20;5.90;;;2.47;;
75768;SDS011;64379;48.888;8.330;2023-02-01T01:18:47;5.32;;;2.72;;
75768;SDS011;64379;48.888;8.330;2023-02-01T01:21:14;4.28;;;1.92;;
75768;SDS011;64379;48.888;8.330;2023-02-01T01:23:40;6.53;;;3.10;;
75768;SDS011;64379;48.888;8.330;2023-02-01T01:26:10;5.28;;;2.22;;
75768;SDS011;64379;48.888;8.330;2023-02-01T01:28:40;5.20;;;2.58;;
75768;SDS011;64379;48.888;8.330;2023-02-01T01:31:09;6.03;;;2.80;;
75768;SDS011;64379;48.888;8.330;2023-02-01T01:33:36;6.45;;;2.67;;
75768;SDS011;64379;48.888;8.330;2023-02-01T01:36:04;9.60;;;3.42;;
75768;SDS011;64379;48.888;8.330;2023-02-01T01:38:31;6.13;;;2.22;;
75768;SDS011;64379;48.888;8.330;2023-02-01T01:40:56;4.85;;;2.45;;
75768;SDS011;64379;48.888;8.330;2023-02-01T01:43:22;5.72;;;2.75;;
75768;SDS011;64379;48.888;8.330;2023-02-01T01:45:48;6.47;;;2.80;;
75768;SDS011;64379;48.888;8.330;2023-02-01T01:48:20;6.88;;;2.55;;
75768;SDS011;64379;48.888;8.330;2023-02-01T01:50:59;6.82;;;3.10;;
75768;SDS011;64379;48.888;8.330;2023-02-01T01:53:31;7.03;;;2.70;;
75768;SDS011;64379;48.888;8.330;2023-02-01T01:56:03;5.13;;;2.45;;
75768;SDS011;64379;48.888;8.330;2023-02-01T01:58:29;6.32;;;2.53;;
75768;SDS011;64379;48.888;8.330;2023-02-01T02:00:57;10.77;;;2.63;;
75768;SDS011;64379;48.888;8.330;2023-02-01T02:03:33;4.70;;;2.20;;
75768;SDS011;64379;48.888;8.330;2023-02-01T02:06:05;6.28;;;2.42;;
75768;SDS011;64379;48.888;8.330;2023-02-01T02:08:39;5.22;;;2.35;;
75768;SDS011;64379;48.888;8.330;2023-02-01T02:11:04;4.40;;;2.20;;
75768;SDS011;64379;48.888;8.330;2023-02-01T02:13:34;5.13;;;2.22;;
75768;SDS011;64379;48.888;8.330;2023-02-01T02:21:53;5.95;;;2.80;;
75768;SDS011;64379;48.888;8.330;2023-02-01T02:26:55;6.47;;;2.80;;
75768;SDS011;64379;48.888;8.330;2023-02-01T02:50:49;5.63;;;2.50;;
75768;SDS011;64379;48.888;8.330;2023-02-01T02:56:43;6.20;;;2.75;;
75768;SDS011;64379;48.888;8.330;2023-02-01T02:59:28;5.93;;;2.55;;
75768;SDS011;64379;48.888;8.330;2023-02-01T03:02:14;6.15;;;2.90;;
75768;SDS011;64379;48.888;8.330;2023-02-01T03:04:59;6.63;;;2.97;;
75768;SDS011;64379;48.888;8.330;2023-02-01T03:12:53;6.30;;;3.22;;
75768;SDS011;64379;48.888;8.330;2023-02-01T03:15:36;5.95;;;2.88;;
75768;SDS011;64379;48.888;8.330;2023-02-01T03:18:02;5.60;;;2.47;;
75768;SDS011;64379;48.888;8.330;2023-02-01T03:20:33;6.30;;;2.50;;
75768;SDS011;64379;48.888;8.330;2023-02-01T03:23:01;6.03;;;2.60;;
75768;SDS011;64379;48.888;8.330;2023-02-01T03:25:31;4.82;;;2.38;;
75768;SDS011;64379;48.888;8.330;2023-02-01T03:28:00;4.55;;;2.30;;
75768;SDS011;64379;48.888;8.330;2023-02-01T03:30:31;6.95;;;2.10;;
75768;SDS011;64379;48.888;8.330;2023-02-01T03:33:07;5.45;;;2.03;;
75768;SDS011;64379;48.888;8.330;2023-02-01T03:38:38;4.57;;;2.10;;
75768;SDS011;64379;48.888;8.330;2023-02-01T03:43:58;3.03;;;1.67;;
75768;SDS011;64379;48.888;8.330;2023-02-01T03:46:35;4.20;;;1.65;;
75768;SDS011;64379;48.888;8.330;2023-02-01T03:49:09;4.05;;;2.17;;
75768;SDS011;64379;48.888;8.330;2023-02-01T03:51:38;4.82;;;2.10;;
75768;SDS011;64379;48.888;8.330;2023-02-01T03:54:06;4.80;;;2.08;;
75768;SDS011;64379;48.888;8.330;2023-02-01T03:56:36;3.65;;;1.50;;
75768;SDS011;64379;48.888;8.330;2023-02-01T03:59:03;3.80;;;1.67;;
75768;SDS011;64379;48.888;8.330;2023-02-01T04:01:29;3.33;;;1.60;;
75768;SDS011;64379;48.888;8.330;2023-02-01T04:03:55;3.50;;;1.50;;
75768;SDS011;64379;48.888;8.330;2023-02-01T04:06:22;3.10;;;1.60;;
75768;SDS011;64379;48.888;8.330;2023-02-01T04:08:49;4.68;;;1.80;;
75768;SDS011;64379;48.888;8.330;2023-02-01T04:11:15;3.65;;;1.40;;
75768;SDS011;64379;48.888;8.330;2023-02-01T04:13:41;4.15;;;1.50;;
75768;SDS011;64379;48.888;8.330;2023-02-01T04:16:06;3.53;;;1.58;;
75768;SDS011;64379;48.888;8.330;2023-02-01T04:18:32;2.95;;;1.35;;
75768;SDS011;64379;48.888;8.330;2023-02-01T04:20:58;3.80;;;1.55;;
75768;SDS011;64379;48.888;8.330;2023-02-01T04:23:23;2.72;;;1.35;;
75768;SDS011;64379;48.888;8.330;2023-02-01T04:25:49;2.90;;;1.33;;
75768;SDS011;64379;48.888;8.330;2023-02-01T04:28:14;3.08;;;1.45;;
75768;SDS011;64379;48.888;8.330;2023-02-01T04:30:40;3.25;;;1.45;;
75768;SDS011;64379;48.888;8.330;2023-02-01T04:33:05;3.47;;;1.40;;
75768;SDS011;64379;48.888;8.330;2023-02-01T04:35:31;3.80;;;1.30;;
75768;SDS011;64379;48.888;8.330;2023-02-01T04:37:56;3.22;;;1.38;;
75768;SDS011;64379;48.888;8.330;2023-02-01T04:40:22;3.08;;;1.30;;
75768;SDS011;64379;48.888;8.330;2023-02-01T04:42:48;3.15;;;1.30;;
75768;SDS011;64379;48.888;8.330;2023-02-01T04:45:13;2.90;;;1.35;;
75768;SDS011;64379;48.888;8.330;2023-02-01T04:47:39;2.67;;;1.25;;
75768;SDS011;64379;48.888;8.330;2023-02-01T04:50:05;2.80;;;1.05;;
75768;SDS011;64379;48.888;8.330;2023-02-01T04:52:32;3.13;;;1.20;;
75768;SDS011;64379;48.888;8.330;2023-02-01T04:54:58;1.80;;;0.65;;
75768;SDS011;64379;48.888;8.330;2023-02-01T04:57:25;2.50;;;1.13;;
75768;SDS011;64379;48.888;8.330;2023-02-01T04:59:51;4.45;;;1.77;;
75768;SDS011;64379;48.888;8.330;2023-02-01T05:02:16;2.83;;;1.40;;
75768;SDS011;64379;48.888;8.330;2023-02-01T05:04:42;2.88;;;1.35;;
75768;SDS011;64379;48.888;8.330;2023-02-01T05:07:07;3.30;;;1.50;;
75768;SDS011;64379;48.888;8.330;2023-02-01T05:09:33;4.30;;;1.83;;
75768;SDS011;64379;48.888;8.330;2023-02-01T05:11:59;3.28;;;1.52;;
75768;SDS011;64379;48.888;8.330;2023-02-01T05:14:42;4.38;;;1.70;;
75768;SDS011;64379;48.888;8.330;2023-02-01T05:17:08;4.88;;;1.70;;
75768;SDS011;64379;48.888;8.330;2023-02-01T05:19:34;7.03;;;2.50;;
75768;SDS011;64379;48.888;8.330;2023-02-01T05:21:59;5.28;;;2.00;;
75768;SDS011;64379;48.888;8.330;2023-02-01T05:24:25;4.53;;;1.90;;
75768;SDS011;64379;48.888;8.330;2023-02-01T05:26:52;5.47;;;2.28;;
75768;SDS011;64379;48.888;8.330;2023-02-01T05:29:17;5.15;;;1.90;;
75768;SDS011;64379;48.888;8.330;2023-02-01T05:31:44;4.35;;;1.65;;
75768;SDS011;64379;48.888;8.330;2023-02-01T05:34:10;4.03;;;1.75;;
75768;SDS011;64379;48.888;8.330;2023-02-01T05:36:36;6.47;;;2.00;;
75768;SDS011;64379;48.888;8.330;2023-02-01T05:39:02;5.53;;;2.55;;
75768;SDS011;64379;48.888;8.330;2023-02-01T05:41:28;5.93;;;2.42;;
75768;SDS011;64379;48.888;8.330;2023-02-01T05:43:53;5.65;;;2.20;;
75768;SDS011;64379;48.888;8.330;2023-02-01T05:46:19;6.10;;;2.45;;
75768;SDS011;64379;48.888;8.330;2023-02-01T05:48:45;4.80;;;2.28;;
75768;SDS011;64379;48.888;8.330;2023-02-01T05:51:10;4.35;;;2.08;;
75768;SDS011;64379;48.888;8.330;2023-02-01T05:53:37;4.80;;;2.20;;
75768;SDS011;64379;48.888;8.330;2023-02-01T05:56:02;5.45;;;2.55;;
75768;SDS011;64379;48.888;8.330;2023-02-01T05:58:29;5.32;;;2.40;;
75768;SDS011;64379;48.888;8.330;2023-02-01T06:00:54;5.20;;;1.90;;
75768;SDS011;64379;48.888;8.330;2023-02-01T06:03:20;6.40;;;2.55;;
75768;SDS011;64379;48.888;8.330;2023-02-01T06:05:46;5.95;;;2.53;;
75768;SDS011;64379;48.888;8.330;2023-02-01T06:08:12;6.72;;;2.10;;
75768;SDS011;64379;48.888;8.330;2023-02-01T06:10:39;5.38;;;2.53;;
75768;SDS011;64379;48.888;8.330;2023-02-01T06:13:04;4.93;;;2.10;;
75768;SDS011;64379;48.888;8.330;2023-02-01T06:15:30;4.85;;;2.10;;
75768;SDS011;64379;48.888;8.330;2023-02-01T06:17:56;4.53;;;2.30;;
75768;SDS011;64379;48.888;8.330;2023-02-01T06:20:22;5.57;;;2.22;;
75768;SDS011;64379;48.888;8.330;2023-02-01T06:22:47;6.68;;;2.33;;
75768;SDS011;64379;48.888;8.330;2023-02-01T06:25:13;4.60;;;2.35;;
75768;SDS011;64379;48.888;8.330;2023-02-01T06:27:39;5.25;;;2.33;;
75768;SDS011;64379;48.888;8.330;2023-02-01T06:30:05;4.70;;;2.22;;
75768;SDS011;64379;48.888;8.330;2023-02-01T06:32:31;7.22;;;2.65;;
75768;SDS011;64379;48.888;8.330;2023-02-01T06:34:57;5.55;;;2.53;;
75768;SDS011;64379;48.888;8.330;2023-02-01T06:37:24;5.47;;;2.20;;
75768;SDS011;64379;48.888;8.330;2023-02-01T06:39:51;3.97;;;1.58;;
75768;SDS011;64379;48.888;8.330;2023-02-01T06:42:17;4.15;;;1.98;;
75768;SDS011;64379;48.888;8.330;2023-02-01T06:44:42;4.88;;;2.20;;
75768;SDS011;64379;48.888;8.330;2023-02-01T06:47:08;6.55;;;2.30;;
75768;SDS011;64379;48.888;8.330;2023-02-01T06:49:33;5.82;;;2.67;;
75768;SDS011;64379;48.888;8.330;2023-02-01T06:51:59;6.15;;;2.25;;
75768;SDS011;64379;48.888;8.330;2023-02-01T06:54:25;4.47;;;2.03;;
75768;SDS011;64379;48.888;8.330;2023-02-01T06:56:51;5.28;;;1.90;;
75768;SDS011;64379;48.888;8.330;2023-02-01T06:59:17;7.35;;;2.55;;
75768;SDS011;64379;48.888;8.330;2023-02-01T07:01:42;6.68;;;2.00;;
75768;SDS011;64379;48.888;8.330;2023-02-01T07:04:09;3.88;;;1.58;;
75768;SDS011;64379;48.888;8.330;2023-02-01T07:06:36;6.50;;;2.15;;
75768;SDS011;64379;48.888;8.330;2023-02-01T07:09:02;5.20;;;1.73;;
75768;SDS011;64379;48.888;8.330;2023-02-01T07:11:28;5.13;;;2.17;;
75768;SDS011;64379;48.888;8.330;2023-02-01T07:13:53;5.78;;;1.85;;
75768;SDS011;64379;48.888;8.330;2023-02-01T07:16:19;5.40;;;1.85;;
75768;SDS011;64379;48.888;8.330;2023-02-01T07:18:46;4.18;;;1.70;;
75768;SDS011;64379;48.888;8.330;2023-02-01T07:21:12;6.93;;;2.47;;
75768;SDS011;64379;48.888;8.330;2023-02-01T07:23:38;5.65;;;2.22;;
75768;SDS011;64379;48.888;8.330;2023-02-01T07:26:04;6.93;;;2.40;;
75768;SDS011;64379;48.888;8.330;2023-02-01T07:28:32;5.00;;;1.77;;
75768;SDS011;64379;48.888;8.330;2023-02-01T07:31:03;6.78;;;2.45;;
75768;SDS011;64379;48.888;8.330;2023-02-01T07:33:29;5.45;;;2.38;;
75768;SDS011;64379;48.888;8.330;2023-02-01T07:35:54;5.20;;;2.10;;
75768;SDS011;64379;48.888;8.330;2023-02-01T07:38:20;4.10;;;1.75;;
75768;SDS011;64379;48.888;8.330;2023-02-01T07:40:47;6.70;;;2.63;;
75768;SDS011;64379;48.888;8.330;2023-02-01T07:43:13;6.38;;;2.08;;
75768;SDS011;64379;48.888;8.330;2023-02-01T07:45:39;6.07;;;2.17;;
75768;SDS011;64379;48.888;8.330;2023-02-01T07:48:04;5.80;;;2.28;;
75768;SDS011;64379;48.888;8.330;2023-02-01T07:50:30;5.05;;;1.90;;
75768;SDS011;64379;48.888;8.330;2023-02-01T07:52:58;7.28;;;2.38;;
75768;SDS011;64379;48.888;8.330;2023-02-01T07:55:25;5.53;;;1.90;;
75768;SDS011;64379;48.888;8.330;2023-02-01T07:57:51;4.22;;;1.75;;
75768;SDS011;64379;48.888;8.330;2023-02-01T08:00:17;4.07;;;1.83;;
75768;SDS011;64379;48.888;8.330;2023-02-01T08:03:03;5.47;;;1.90;;
75768;SDS011;64379;48.888;8.330;2023-02-01T08:05:29;4.00;;;1.58;;
75768;SDS011;64379;48.888;8.330;2023-02-01T08:07:55;6.72;;;2.00;;
75768;SDS011;64379;48.888;8.330;2023-02-01T08:10:20;3.90;;;1.60;;
75768;SDS011;64379;48.888;8.330;2023-02-01T08:12:46;3.35;;;1.52;;
75768;SDS011;64379;48.888;8.330;2023-02-01T08:15:13;5.85;;;1.80;;
75768;SDS011;64379;48.888;8.330;2023-02-01T08:17:40;4.72;;;1.63;;
75768;SDS011;64379;48.888;8.330;2023-02-01T08:20:11;3.38;;;1.20;;
75768;SDS011;64379;48.888;8.330;2023-02-01T08:22:38;5.22;;;1.88;;
75768;SDS011;64379;48.888;8.330;2023-02-01T08:25:04;9.90;;;2.22;;
75768;SDS011;64379;48.888;8.330;2023-02-01T08:27:32;6.95;;;1.80;;
75768;SDS011;64379;48.888;8.330;2023-02-01T08:29:58;8.00;;;1.95;;
75768;SDS011;64379;48.888;8.330;2023-02-01T08:32:24;7.40;;;2.20;;
75768;SDS011;64379;48.888;8.330;2023-02-01T08:34:50;6.93;;;1.63;;
75768;SDS011;64379;48.888;8.330;2023-02-01T08:37:15;5.07;;;1.50;;
75768;SDS011;64379;48.888;8.330;2023-02-01T08:39:41;5.53;;;2.00;;
75768;SDS011;64379;48.888;8.330;2023-02-01T08:42:09;6.20;;;1.95;;
75768;SDS011;64379;48.888;8.330;2023-02-01T08:44:54;7.80;;;2.40;;
75768;SDS011;64379;48.888;8.330;2023-02-01T08:47:20;6.32;;;1.48;;
75768;SDS011;64379;48.888;8.330;2023-02-01T08:49:45;4.85;;;1.70;;
75768;SDS011;64379;48.888;8.330;2023-02-01T08:52:11;5.63;;;1.70;;
75768;SDS011;64379;48.888;8.330;2023-02-01T08:54:37;4.40;;;1.60;;
75768;SDS011;64379;48.888;8.330;2023-02-01T08:57:05;5.47;;;2.38;;
75768;SDS011;64379;48.888;8.330;2023-02-01T08:59:30;7.10;;;2.30;;
75768;SDS011;64379;48.888;8.330;2023-02-01T09:01:56;5.40;;;1.50;;
75768;SDS011;64379;48.888;8.330;2023-02-01T09:04:21;5.55;;;1.70;;
75768;SDS011;64379;48.888;8.330;2023-02-01T09:06:47;7.03;;;1.67;;
75768;SDS011;64379;48.888;8.330;2023-02-01T09:09:12;6.35;;;2.10;;
75768;SDS011;64379;48.888;8.330;2023-02-01T09:11:38;7.45;;;1.88;;
75768;SDS011;64379;48.888;8.330;2023-02-01T09:14:04;6.55;;;1.90;;
75768;SDS011;64379;48.888;8.330;2023-02-01T09:16:29;5.70;;;1.90;;
75768;SDS011;64379;48.888;8.330;2023-02-01T09:18:55;6.43;;;2.03;;
75768;SDS011;64379;48.888;8.330;2023-02-01T09:21:21;6.20;;;1.90;;
75768;SDS011;64379;48.888;8.330;2023-02-01T09:23:46;5.35;;;1.80;;
75768;SDS011;64379;48.888;8.330;2023-02-01T09:26:13;8.30;;;2.10;;
75768;SDS011;64379;48.888;8.330;2023-02-01T09:28:39;6.07;;;1.50;;
75768;SDS011;64379;48.888;8.330;2023-02-01T09:31:05;6.28;;;1.95;;
75768;SDS011;64379;48.888;8.330;2023-02-01T09:33:30;5.68;;;1.60;;
75768;SDS011;64379;48.888;8.330;2023-02-01T09:35:57;9.75;;;1.70;;
75768;SDS011;64379;48.888;8.330;2023-02-01T09:38:24;9.00;;;2.30;;
75768;SDS011;64379;48.888;8.330;2023-02-01T09:40:52;7.22;;;1.58;;
75768;SDS011;64379;48.888;8.330;2023-02-01T09:43:24;6.22;;;1.90;;
75768;SDS011;64379;48.888;8.330;2023-02-01T09:46:18;11.32;;;2.63;;
75768;SDS011;64379;48.888;8.330;2023-02-01T09:48:52;7.60;;;2.13;;
75768;SDS011;64379;48.888;8.330;2023-02-01T09:51:21;7.47;;;1.90;;
75768;SDS011;64379;48.888;8.330;2023-02-01T09:53:58;7.45;;;1.98;;
75768;SDS011;64379;48.888;8.330;2023-02-01T09:56:30;11.60;;;1.85;;
75768;SDS011;64379;48.888;8.330;2023-02-01T10:01:48;8.57;;;2.55;;
75768;SDS011;64379;48.888;8.330;2023-02-01T10:04:14;8.80;;;2.20;;
75768;SDS011;64379;48.888;8.330;2023-02-01T10:09:29;8.07;;;1.70;;
75768;SDS011;64379;48.888;8.330;2023-02-01T10:17:34;8.52;;;2.28;;
75768;SDS011;64379;48.888;8.330;2023-02-01T10:22:54;8.30;;;2.00;;
75768;SDS011;64379;48.888;8.330;2023-02-01T10:25:32;6.00;;;1.83;;
75768;SDS011;64379;48.888;8.330;2023-02-01T10:28:06;9.73;;;2.03;;
75768;SDS011;64379;48.888;8.330;2023-02-01T10:30:41;8.55;;;2.20;;
75768;SDS011;64379;48.888;8.330;2023-02-01T10:35:58;7.90;;;2.75;;
75768;SDS011;64379;48.888;8.330;2023-02-01T10:38:47;6.35;;;1.67;;
75768;SDS011;64379;48.888;8.330;2023-02-01T10:41:22;13.52;;;2.53;;
75768;SDS011;64379;48.888;8.330;2023-02-01T10:43:53;6.97;;;2.10;;
75768;SDS011;64379;48.888;8.330;2023-02-01T10:46:25;8.63;;;2.00;;
75768;SDS011;64379;48.888;8.330;2023-02-01T10:48:55;7.00;;;2.13;;
75768;SDS011;64379;48.888;8.330;2023-02-01T10:51:26;7.05;;;1.98;;
75768;SDS011;64379;48.888;8.330;2023-02-01T10:54:03;8.95;;;2.60;;
75768;SDS011;64379;48.888;8.330;2023-02-01T10:56:37;8.95;;;2.67;;
75768;SDS011;64379;48.888;8.330;2023-02-01T10:59:04;12.38;;;2.10;;
75768;SDS011;64379;48.888;8.330;2023-02-01T11:01:33;7.88;;;2.00;;
75768;SDS011;64379;48.888;8.330;2023-02-01T11:04:03;5.90;;;1.83;;
75768;SDS011;64379;48.888;8.330;2023-02-01T11:06:31;4.20;;;1.52;;
75768;SDS011;64379;48.888;8.330;2023-02-01T11:11:51;6.72;;;2.00;;
75768;SDS011;64379;48.888;8.330;2023-02-01T11:14:20;7.40;;;2.35;;
75768;SDS011;64379;48.888;8.330;2023-02-01T11:16:53;7.07;;;2.08;;
75768;SDS011;64379;48.888;8.330;2023-02-01T11:19:22;6.10;;;1.60;;
75768;SDS011;64379;48.888;8.330;2023-02-01T11:21:51;6.30;;;1.77;;
75768;SDS011;64379;48.888;8.330;2023-02-01T11:24:32;6.90;;;2.03;;
75768;SDS011;64379;48.888;8.330;2023-02-01T11:27:01;9.35;;;1.90;;
75768;SDS011;64379;48.888;8.330;2023-02-01T11:29:32;7.53;;;2.30;;
75768;SDS011;64379;48.888;8.330;2023-02-01T11:32:10;11.48;;;2.30;;
75768;SDS011;64379;48.888;8.330;2023-02-01T11:34:39;7.38;;;2.13;;
75768;SDS011;64379;48.888;8.330;2023-02-01T11:37:16;6.32;;;1.95;;
75768;SDS011;64379;48.888;8.330;2023-02-01T11:39:54;7.60;;;2.15;;
75768;SDS011;64379;48.888;8.330;2023-02-01T11:42:25;9.93;;;2.15;;
75768;SDS011;64379;48.888;8.330;2023-02-01T11:44:51;7.00;;;1.77;;
75768;SDS011;64379;48.888;8.330;2023-02-01T11:47:43;10.70;;;2.15;;
75768;SDS011;64379;48.888;8.330;2023-02-01T11:50:28;7.28;;;1.92;;
75768;SDS011;64379;48.888;8.330;2023-02-01T11:55:37;6.53;;;2.10;;
75768;SDS011;64379;48.888;8.330;2023-02-01T11:58:28;5.18;;;2.00;;
75768;SDS011;64379;48.888;8.330;2023-02-01T12:06:57;9.13;;;2.30;;
75768;SDS011;64379;48.888;8.330;2023-02-01T12:09:50;8.25;;;2.20;;
75768;SDS011;64379;48.888;8.330;2023-02-01T12:15:32;9.38;;;2.42;;
75768;SDS011;64379;48.888;8.330;2023-02-01T12:24:31;7.25;;;2.40;;
75768;SDS011;64379;48.888;8.330;2023-02-01T12:32:25;9.15;;;2.50;;
75768;SDS011;64379;48.888;8.330;2023-02-01T12:45:33;11.10;;;2.67;;
75768;SDS011;64379;48.888;8.330;2023-02-01T12:48:22;7.28;;;2.40;;
75768;SDS011;64379;48.888;8.330;2023-02-01T12:50:51;8.75;;;2.45;;
75768;SDS011;64379;48.888;8.330;2023-02-01T12:53:25;6.93;;;2.30;;
75768;SDS011;64379;48.888;8.330;2023-02-01T12:55:57;11.27;;;1.90;;
75768;SDS011;64379;48.888;8.330;2023-02-01T13:04:17;8.35;;;2.03;;
75768;SDS011;64379;48.888;8.330;2023-02-01T13:06:59;9.23;;;2.40;;
75768;SDS011;64379;48.888;8.330;2023-02-01T13:09:45;15.32;;;2.88;;
75768;SDS011;64379;48.888;8.330;2023-02-01T13:12:24;8.77;;;2.50;;
75768;SDS011;64379;48.888;8.330;2023-02-01T13:15:02;7.70;;;1.98;;
75768;SDS011;64379;48.888;8.330;2023-02-01T13:17:29;6.68;;;2.30;;
75768;SDS011;64379;48.888;8.330;2023-02-01T13:22:34;10.20;;;2.78;;
75768;SDS011;64379;48.888;8.330;2023-02-01T13:25:13;12.13;;;3.28;;
75768;SDS011;64379;48.888;8.330;2023-02-01T13:27:43;8.30;;;2.45;;
75768;SDS011;64379;48.888;8.330;2023-02-01T13:43:38;13.75;;;2.63;;
75768;SDS011;64379;48.888;8.330;2023-02-01T13:46:07;5.95;;;2.15;;
75768;SDS011;64379;48.888;8.330;2023-02-01T13:48:39;11.52;;;3.05;;
75768;SDS011;64379;48.888;8.330;2023-02-01T13:51:14;12.38;;;2.35;;
75768;SDS011;64379;48.888;8.330;2023-02-01T13:53:45;10.70;;;2.75;;
75768;SDS011;64379;48.888;8.330;2023-02-01T13:58:43;11.52;;;2.60;;
75768;SDS011;64379;48.888;8.330;2023-02-01T14:03:55;13.80;;;2.47;;
75768;SDS011;64379;48.888;8.330;2023-02-01T14:11:56;14.25;;;2.50;;
75768;SDS011;64379;48.888;8.330;2023-02-01T14:19:29;14.02;;;2.42;;
75768;SDS011;64379;48.888;8.330;2023-02-01T14:21:57;12.90;;;2.17;;
75768;SDS011;64379;48.888;8.330;2023-02-01T14:24:55;14.23;;;2.42;;
75768;SDS011;64379;48.888;8.330;2023-02-01T14:27:26;9.50;;;2.40;;
75768;SDS011;64379;48.888;8.330;2023-02-01T14:29:58;6.25;;;1.70;;
75768;SDS011;64379;48.888;8.330;2023-02-01T14:32:33;11.48;;;2.80;;
75768;SDS011;64379;48.888;8.330;2023-02-01T14:35:05;9.45;;;2.00;;
75768;SDS011;64379;48.888;8.330;2023-02-01T14:37:34;10.13;;;2.00;;
75768;SDS011;64379;48.888;8.330;2023-02-01T14:40:03;5.72;;;1.70;;
75768;SDS011;64379;48.888;8.330;2023-02-01T14:47:45;13.30;;;3.00;;
75768;SDS011;64379;48.888;8.330;2023-02-01T15:04:05;13.75;;;3.08;;
75768;SDS011;64379;48.888;8.330;2023-02-01T15:06:42;11.07;;;2.00;;
75768;SDS011;64379;48.888;8.330;2023-02-01T15:14:41;10.65;;;2.30;;
75768;SDS011;64379;48.888;8.330;2023-02-01T15:17:20;7.60;;;2.00;;
75768;SDS011;64379;48.888;8.330;2023-02-01T15:20:00;12.63;;;2.65;;
75768;SDS011;64379;48.888;8.330;2023-02-01T15:22:54;6.80;;;1.55;;
75768;SDS011;64379;48.888;8.330;2023-02-01T15:25:25;12.65;;;2.30;;
75768;SDS011;64379;48.888;8.330;2023-02-01T15:27:54;15.32;;;2.53;;
75768;SDS011;64379;48.888;8.330;2023-02-01T15:30:22;7.28;;;1.80;;
75768;SDS011;64379;48.888;8.330;2023-02-01T15:32:48;10.98;;;2.42;;
75768;SDS011;64379;48.888;8.330;2023-02-01T15:40:59;14.05;;;2.53;;
75768;SDS011;64379;48.888;8.330;2023-02-01T15:43:28;13.48;;;2.72;;
75768;SDS011;64379;48.888;8.330;2023-02-01T15:45:56;9.60;;;2.63;;
75768;SDS011;64379;48.888;8.330;2023-02-01T15:48:24;12.75;;;2.60;;
75768;SDS011;64379;48.888;8.330;2023-02-01T15:50:52;6.40;;;1.80;;
75768;SDS011;64379;48.888;8.330;2023-02-01T15:55:47;11.45;;;2.38;;
75768;SDS011;64379;48.888;8.330;2023-02-01T15:58:19;10.23;;;2.08;;
75768;SDS011;64379;48.888;8.330;2023-02-01T16:00:47;13.25;;;2.45;;
75768;SDS011;64379;48.888;8.330;2023-02-01T16:06:05;11.10;;;2.08;;
75768;SDS011;64379;48.888;8.330;2023-02-01T16:08:33;11.52;;;2.15;;
75768;SDS011;64379;48.888;8.330;2023-02-01T16:11:23;11.07;;;2.72;;
75768;SDS011;64379;48.888;8.330;2023-02-01T16:13:52;13.52;;;2.65;;
75768;SDS011;64379;48.888;8.330;2023-02-01T16:16:18;12.55;;;3.03;;
75768;SDS011;64379;48.888;8.330;2023-02-01T16:18:44;11.98;;;2.38;;
75768;SDS011;64379;48.888;8.330;2023-02-01T16:21:10;8.43;;;2.13;;
75768;SDS011;64379;48.888;8.330;2023-02-01T16:23:36;7.75;;;2.20;;
75768;SDS011;64379;48.888;8.330;2023-02-01T16:26:02;14.50;;;2.80;;
75768;SDS011;64379;48.888;8.330;2023-02-01T16:28:29;10.02;;;2.28;;
75768;SDS011;64379;48.888;8.330;2023-02-01T16:30:54;30.73;;;3.03;;
75768;SDS011;64379;48.888;8.330;2023-02-01T16:33:20;9.35;;;1.98;;
75768;SDS011;64379;48.888;8.330;2023-02-01T16:35:47;11.73;;;2.10;;
75768;SDS011;64379;48.888;8.330;2023-02-01T16:38:16;11.52;;;2.65;;
75768;SDS011;64379;48.888;8.330;2023-02-01T16:40:46;9.98;;;2.47;;
75768;SDS011;64379;48.888;8.330;2023-02-01T16:43:13;8.07;;;1.88;;
75768;SDS011;64379;48.888;8.330;2023-02-01T16:45:40;11.05;;;2.75;;
75768;SDS011;64379;48.888;8.330;2023-02-01T16:48:17;9.35;;;2.40;;
75768;SDS011;64379;48.888;8.330;2023-02-01T16:50:50;10.48;;;2.03;;
75768;SDS011;64379;48.888;8.330;2023-02-01T16:53:21;11.73;;;2.10;;
75768;SDS011;64379;48.888;8.330;2023-02-01T16:55:48;9.77;;;2.70;;
75768;SDS011;64379;48.888;8.330;2023-02-01T16:58:15;7.90;;;2.28;;
75768;SDS011;64379;48.888;8.330;2023-02-01T17:00:42;9.85;;;2.70;;
75768;SDS011;64379;48.888;8.330;2023-02-01T17:03:09;10.15;;;2.97;;
75768;SDS011;64379;48.888;8.330;2023-02-01T17:05:41;10.05;;;2.75;;
75768;SDS011;64379;48.888;8.330;2023-02-01T17:08:11;14.02;;;3.25;;
75768;SDS011;64379;48.888;8.330;2023-02-01T17:10:39;10.57;;;2.67;;
75768;SDS011;64379;48.888;8.330;2023-02-01T17:13:07;9.38;;;2.58;;
75768;SDS011;64379;48.888;8.330;2023-02-01T17:15:37;13.93;;;2.95;;
75768;SDS011;64379;48.888;8.330;2023-02-01T17:18:03;12.48;;;3.17;;
75768;SDS011;64379;48.888;8.330;2023-02-01T17:20:30;13.25;;;2.38;;
75768;SDS011;64379;48.888;8.330;2023-02-01T17:22:57;6.80;;;1.90;;
75768;SDS011;64379;48.888;8.330;2023-02-01T17:25:30;11.65;;;2.95;;
75768;SDS011;64379;48.888;8.330;2023-02-01T17:27:55;7.97;;;2.20;;
75768;SDS011;64379;48.888;8.330;2023-02-01T17:30:21;10.63;;;2.95;;
75768;SDS011;64379;48.888;8.330;2023-02-01T17:32:47;10.82;;;2.15;;
75768;SDS011;64379;48.888;8.330;2023-02-01T17:35:18;12.73;;;2.35;;
75768;SDS011;64379;48.888;8.330;2023-02-01T17:37:45;13.43;;;3.40;;
75768;SDS011;64379;48.888;8.330;2023-02-01T17:40:12;14.60;;;2.25;;
75768;SDS011;64379;48.888;8.330;2023-02-01T17:42:37;9.50;;;2.40;;
75768;SDS011;64379;48.888;8.330;2023-02-01T17:47:44;10.68;;;2.78;;
75768;SDS011;64379;48.888;8.330;2023-02-01T17:50:13;11.30;;;2.70;;